sensor_id;sensor_type;location;lat;lon;timestamp;P1;durP1;ratioP1;P2;durP2;ratioP2
19167;SDS011;9716;53.114;18.040;2022-09-09T00:00:13;5.90;;;2.67;;
19167;SDS011;9716;53.114;18.040;2022-09-09T00:03:05;4.22;;;2.38;;
19167;SDS011;9716;53.114;18.040;2022-09-09T00:05:44;5.40;;;2.92;;
19167;SDS011;9716;53.114;18.040;2022-09-09T00:08:19;6.07;;;3.25;;
19167;SDS011;9716;53.114;18.040;2022-09-09T00:10:51;10.55;;;3.00;;
19167;SDS011;9716;53.114;18.040;2022-09-09T00:13:28;6.90;;;2.80;;
19167;SDS011;9716;53.114;18.040;2022-09-09T00:16:03;4.57;;;2.97;;
19167;SDS011;9716;53.114;18.040;2022-09-09T00:18:40;8.00;;;3.10;;
19167;SDS011;9716;53.114;18.040;2022-09-09T00:21:17;6.05;;;3.50;;
19167;SDS011;9716;53.114;18.040;2022-09-09T00:23:47;6.43;;;2.90;;
19167;SDS011;9716;53.114;18.040;2022-09-09T00:26:21;6.35;;;2.90;;
19167;SDS011;9716;53.114;18.040;2022-09-09T00:28:59;7.43;;;3.60;;
19167;SDS011;9716;53.114;18.040;2022-09-09T00:31:33;4.10;;;2.97;;
19167;SDS011;9716;53.114;18.040;2022-09-09T00:34:05;9.35;;;3.30;;
19167;SDS011;9716;53.114;18.040;2022-09-09T00:36:40;9.80;;;3.08;;
19167;SDS011;9716;53.114;18.040;2022-09-09T00:39:22;8.38;;;3.00;;
19167;SDS011;9716;53.114;18.040;2022-09-09T00:42:04;9.07;;;3.00;;
19167;SDS011;9716;53.114;18.040;2022-09-09T00:44:46;8.95;;;3.97;;
19167;SDS011;9716;53.114;18.040;2022-09-09T00:47:25;5.55;;;2.50;;
19167;SDS011;9716;53.114;18.040;2022-09-09T00:50:15;10.95;;;3.95;;
19167;SDS011;9716;53.114;18.040;2022-09-09T00:52:55;5.20;;;2.75;;
19167;SDS011;9716;53.114;18.040;2022-09-09T00:55:32;5.30;;;3.25;;
19167;SDS011;9716;53.114;18.040;2022-09-09T00:58:09;7.88;;;3.53;;
19167;SDS011;9716;53.114;18.040;2022-09-09T01:00:39;4.57;;;3.15;;
19167;SDS011;9716;53.114;18.040;2022-09-09T01:03:17;6.82;;;3.20;;
19167;SDS011;9716;53.114;18.040;2022-09-09T01:05:53;8.98;;;2.83;;
19167;SDS011;9716;53.114;18.040;2022-09-09T01:08:36;4.70;;;3.08;;
19167;SDS011;9716;53.114;18.040;2022-09-09T01:11:16;4.88;;;3.08;;
19167;SDS011;9716;53.114;18.040;2022-09-09T01:13:52;7.30;;;2.95;;
19167;SDS011;9716;53.114;18.040;2022-09-09T01:16:25;5.35;;;3.15;;
19167;SDS011;9716;53.114;18.040;2022-09-09T01:18:56;7.10;;;2.88;;
19167;SDS011;9716;53.114;18.040;2022-09-09T01:21:30;11.27;;;3.55;;
19167;SDS011;9716;53.114;18.040;2022-09-09T01:26:57;5.35;;;3.03;;
19167;SDS011;9716;53.114;18.040;2022-09-09T01:29:27;5.88;;;2.60;;
19167;SDS011;9716;53.114;18.040;2022-09-09T01:31:57;5.07;;;2.88;;
19167;SDS011;9716;53.114;18.040;2022-09-09T01:34:27;4.28;;;3.33;;
19167;SDS011;9716;53.114;18.040;2022-09-09T01:36:59;6.35;;;3.17;;
19167;SDS011;9716;53.114;18.040;2022-09-09T01:39:32;5.85;;;3.10;;
19167;SDS011;9716;53.114;18.040;2022-09-09T01:42:04;5.78;;;3.80;;
19167;SDS011;9716;53.114;18.040;2022-09-09T01:44:35;5.05;;;3.30;;
19167;SDS011;9716;53.114;18.040;2022-09-09T01:47:04;7.80;;;3.47;;
19167;SDS011;9716;53.114;18.040;2022-09-09T01:49:33;11.48;;;3.85;;
19167;SDS011;9716;53.114;18.040;2022-09-09T01:52:02;8.05;;;4.45;;
19167;SDS011;9716;53.114;18.040;2022-09-09T01:54:31;13.73;;;3.75;;
19167;SDS011;9716;53.114;18.040;2022-09-09T01:57:02;6.75;;;4.10;;
19167;SDS011;9716;53.114;18.040;2022-09-09T01:59:43;6.85;;;3.35;;
19167;SDS011;9716;53.114;18.040;2022-09-09T02:02:19;11.70;;;3.90;;
19167;SDS011;9716;53.114;18.040;2022-09-09T02:04:54;6.90;;;3.60;;
19167;SDS011;9716;53.114;18.040;2022-09-09T02:07:30;11.45;;;3.22;;
19167;SDS011;9716;53.114;18.040;2022-09-09T02:10:09;5.00;;;2.88;;
19167;SDS011;9716;53.114;18.040;2022-09-09T02:12:42;6.50;;;3.00;;
19167;SDS011;9716;53.114;18.040;2022-09-09T02:15:16;7.53;;;3.35;;
19167;SDS011;9716;53.114;18.040;2022-09-09T02:17:48;6.45;;;3.38;;
19167;SDS011;9716;53.114;18.040;2022-09-09T02:20:20;6.85;;;3.22;;
19167;SDS011;9716;53.114;18.040;2022-09-09T02:22:50;7.05;;;4.05;;
19167;SDS011;9716;53.114;18.040;2022-09-09T02:25:21;4.50;;;3.05;;
19167;SDS011;9716;53.114;18.040;2022-09-09T02:27:53;10.40;;;3.10;;
19167;SDS011;9716;53.114;18.040;2022-09-09T02:30:22;5.72;;;3.25;;
19167;SDS011;9716;53.114;18.040;2022-09-09T02:32:50;11.40;;;4.00;;
19167;SDS011;9716;53.114;18.040;2022-09-09T02:35:23;5.78;;;3.00;;
19167;SDS011;9716;53.114;18.040;2022-09-09T02:37:53;7.50;;;3.60;;
19167;SDS011;9716;53.114;18.040;2022-09-09T02:40:25;4.18;;;2.95;;
19167;SDS011;9716;53.114;18.040;2022-09-09T02:42:55;8.38;;;3.65;;
19167;SDS011;9716;53.114;18.040;2022-09-09T02:45:24;6.10;;;3.63;;
19167;SDS011;9716;53.114;18.040;2022-09-09T02:47:56;6.47;;;3.40;;
19167;SDS011;9716;53.114;18.040;2022-09-09T02:50:34;4.90;;;3.78;;
19167;SDS011;9716;53.114;18.040;2022-09-09T02:53:09;7.68;;;3.95;;
19167;SDS011;9716;53.114;18.040;2022-09-09T02:55:45;10.13;;;4.43;;
19167;SDS011;9716;53.114;18.040;2022-09-09T02:58:17;7.25;;;4.13;;
19167;SDS011;9716;53.114;18.040;2022-09-09T03:00:47;8.82;;;3.67;;
19167;SDS011;9716;53.114;18.040;2022-09-09T03:03:17;5.65;;;2.92;;
19167;SDS011;9716;53.114;18.040;2022-09-09T03:05:48;9.55;;;4.13;;
19167;SDS011;9716;53.114;18.040;2022-09-09T03:08:17;9.27;;;3.75;;
19167;SDS011;9716;53.114;18.040;2022-09-09T03:10:46;5.40;;;3.45;;
19167;SDS011;9716;53.114;18.040;2022-09-09T03:13:14;5.78;;;3.97;;
19167;SDS011;9716;53.114;18.040;2022-09-09T03:15:48;7.70;;;3.60;;
19167;SDS011;9716;53.114;18.040;2022-09-09T03:18:18;14.95;;;3.65;;
19167;SDS011;9716;53.114;18.040;2022-09-09T03:20:47;6.00;;;3.92;;
19167;SDS011;9716;53.114;18.040;2022-09-09T03:23:16;13.30;;;3.45;;
19167;SDS011;9716;53.114;18.040;2022-09-09T03:25:48;7.35;;;3.78;;
19167;SDS011;9716;53.114;18.040;2022-09-09T03:28:17;7.40;;;4.05;;
19167;SDS011;9716;53.114;18.040;2022-09-09T03:30:48;7.32;;;3.45;;
19167;SDS011;9716;53.114;18.040;2022-09-09T03:33:17;6.65;;;3.45;;
19167;SDS011;9716;53.114;18.040;2022-09-09T03:35:45;6.97;;;3.90;;
19167;SDS011;9716;53.114;18.040;2022-09-09T03:38:15;10.27;;;4.43;;
19167;SDS011;9716;53.114;18.040;2022-09-09T03:40:53;8.15;;;4.20;;
19167;SDS011;9716;53.114;18.040;2022-09-09T03:43:24;6.70;;;4.10;;
19167;SDS011;9716;53.114;18.040;2022-09-09T03:45:55;9.00;;;5.05;;
19167;SDS011;9716;53.114;18.040;2022-09-09T03:48:24;7.68;;;4.45;;
19167;SDS011;9716;53.114;18.040;2022-09-09T03:50:55;14.00;;;4.68;;
19167;SDS011;9716;53.114;18.040;2022-09-09T03:53:24;9.30;;;4.55;;
19167;SDS011;9716;53.114;18.040;2022-09-09T03:55:54;9.23;;;4.00;;
19167;SDS011;9716;53.114;18.040;2022-09-09T03:58:26;8.82;;;3.97;;
19167;SDS011;9716;53.114;18.040;2022-09-09T04:00:57;7.63;;;3.85;;
19167;SDS011;9716;53.114;18.040;2022-09-09T04:03:27;9.60;;;3.97;;
19167;SDS011;9716;53.114;18.040;2022-09-09T04:05:58;9.05;;;4.80;;
19167;SDS011;9716;53.114;18.040;2022-09-09T04:08:28;8.57;;;4.10;;
19167;SDS011;9716;53.114;18.040;2022-09-09T04:10:58;7.93;;;4.68;;
19167;SDS011;9716;53.114;18.040;2022-09-09T04:13:28;9.27;;;5.90;;
19167;SDS011;9716;53.114;18.040;2022-09-09T04:15:58;11.63;;;4.85;;
19167;SDS011;9716;53.114;18.040;2022-09-09T04:18:28;11.98;;;4.88;;
19167;SDS011;9716;53.114;18.040;2022-09-09T04:20:57;10.18;;;5.32;;
19167;SDS011;9716;53.114;18.040;2022-09-09T04:23:27;9.80;;;5.22;;
19167;SDS011;9716;53.114;18.040;2022-09-09T04:25:57;6.47;;;4.20;;
19167;SDS011;9716;53.114;18.040;2022-09-09T04:28:27;6.00;;;3.78;;
19167;SDS011;9716;53.114;18.040;2022-09-09T04:31:04;7.70;;;4.35;;
19167;SDS011;9716;53.114;18.040;2022-09-09T04:33:34;8.55;;;4.15;;
19167;SDS011;9716;53.114;18.040;2022-09-09T04:36:06;6.57;;;3.92;;
19167;SDS011;9716;53.114;18.040;2022-09-09T04:38:35;12.80;;;4.10;;
19167;SDS011;9716;53.114;18.040;2022-09-09T04:41:04;7.95;;;4.47;;
19167;SDS011;9716;53.114;18.040;2022-09-09T04:43:34;6.32;;;3.78;;
19167;SDS011;9716;53.114;18.040;2022-09-09T04:46:04;4.93;;;3.55;;
19167;SDS011;9716;53.114;18.040;2022-09-09T04:48:33;6.38;;;3.65;;
19167;SDS011;9716;53.114;18.040;2022-09-09T04:51:03;10.32;;;3.65;;
19167;SDS011;9716;53.114;18.040;2022-09-09T04:53:33;8.13;;;4.25;;
19167;SDS011;9716;53.114;18.040;2022-09-09T04:56:03;8.90;;;4.40;;
19167;SDS011;9716;53.114;18.040;2022-09-09T04:58:32;8.48;;;3.90;;
19167;SDS011;9716;53.114;18.040;2022-09-09T05:01:08;8.27;;;4.47;;
19167;SDS011;9716;53.114;18.040;2022-09-09T05:03:38;5.10;;;3.60;;
19167;SDS011;9716;53.114;18.040;2022-09-09T05:06:08;11.90;;;3.75;;
19167;SDS011;9716;53.114;18.040;2022-09-09T05:08:37;9.13;;;3.97;;
19167;SDS011;9716;53.114;18.040;2022-09-09T05:11:13;7.20;;;3.78;;
19167;SDS011;9716;53.114;18.040;2022-09-09T05:13:45;6.32;;;3.78;;
19167;SDS011;9716;53.114;18.040;2022-09-09T05:16:16;10.60;;;4.18;;
19167;SDS011;9716;53.114;18.040;2022-09-09T05:18:46;6.97;;;4.32;;
19167;SDS011;9716;53.114;18.040;2022-09-09T05:21:16;6.00;;;3.72;;
19167;SDS011;9716;53.114;18.040;2022-09-09T05:23:45;8.32;;;4.05;;
19167;SDS011;9716;53.114;18.040;2022-09-09T05:26:14;9.60;;;4.45;;
19167;SDS011;9716;53.114;18.040;2022-09-09T05:28:44;7.45;;;4.22;;
19167;SDS011;9716;53.114;18.040;2022-09-09T05:31:14;9.50;;;4.60;;
19167;SDS011;9716;53.114;18.040;2022-09-09T05:33:46;9.57;;;4.15;;
19167;SDS011;9716;53.114;18.040;2022-09-09T05:36:16;7.30;;;4.15;;
19167;SDS011;9716;53.114;18.040;2022-09-09T05:38:46;6.95;;;4.25;;
19167;SDS011;9716;53.114;18.040;2022-09-09T05:41:16;9.20;;;5.35;;
19167;SDS011;9716;53.114;18.040;2022-09-09T05:43:46;14.43;;;4.75;;
19167;SDS011;9716;53.114;18.040;2022-09-09T05:46:17;8.68;;;4.38;;
19167;SDS011;9716;53.114;18.040;2022-09-09T05:48:47;8.18;;;4.68;;
19167;SDS011;9716;53.114;18.040;2022-09-09T05:51:18;8.80;;;4.68;;
19167;SDS011;9716;53.114;18.040;2022-09-09T05:53:48;10.38;;;4.03;;
19167;SDS011;9716;53.114;18.040;2022-09-09T05:56:18;7.82;;;4.00;;
19167;SDS011;9716;53.114;18.040;2022-09-09T05:58:48;13.55;;;5.35;;
19167;SDS011;9716;53.114;18.040;2022-09-09T06:01:20;9.13;;;4.60;;
19167;SDS011;9716;53.114;18.040;2022-09-09T06:03:50;6.65;;;4.95;;
19167;SDS011;9716;53.114;18.040;2022-09-09T06:06:19;14.00;;;5.05;;
19167;SDS011;9716;53.114;18.040;2022-09-09T06:08:50;11.18;;;5.65;;
19167;SDS011;9716;53.114;18.040;2022-09-09T06:11:20;10.43;;;5.60;;
19167;SDS011;9716;53.114;18.040;2022-09-09T06:13:50;15.02;;;5.95;;
19167;SDS011;9716;53.114;18.040;2022-09-09T06:16:22;10.95;;;5.00;;
19167;SDS011;9716;53.114;18.040;2022-09-09T06:18:52;10.05;;;4.53;;
19167;SDS011;9716;53.114;18.040;2022-09-09T06:21:22;11.93;;;6.15;;
19167;SDS011;9716;53.114;18.040;2022-09-09T06:23:51;10.55;;;5.85;;
19167;SDS011;9716;53.114;18.040;2022-09-09T06:26:27;11.63;;;5.45;;
19167;SDS011;9716;53.114;18.040;2022-09-09T06:28:57;13.55;;;6.32;;
19167;SDS011;9716;53.114;18.040;2022-09-09T06:31:28;11.13;;;6.13;;
19167;SDS011;9716;53.114;18.040;2022-09-09T06:33:58;10.38;;;5.78;;
19167;SDS011;9716;53.114;18.040;2022-09-09T06:36:27;13.80;;;6.15;;
19167;SDS011;9716;53.114;18.040;2022-09-09T06:38:57;13.52;;;6.97;;
19167;SDS011;9716;53.114;18.040;2022-09-09T06:41:27;11.18;;;6.32;;
19167;SDS011;9716;53.114;18.040;2022-09-09T06:43:57;17.33;;;6.65;;
19167;SDS011;9716;53.114;18.040;2022-09-09T06:46:29;11.18;;;6.50;;
19167;SDS011;9716;53.114;18.040;2022-09-09T06:49:00;13.45;;;5.90;;
19167;SDS011;9716;53.114;18.040;2022-09-09T06:51:29;21.15;;;6.18;;
19167;SDS011;9716;53.114;18.040;2022-09-09T06:53:59;18.40;;;6.28;;
19167;SDS011;9716;53.114;18.040;2022-09-09T06:56:29;14.93;;;5.93;;
19167;SDS011;9716;53.114;18.040;2022-09-09T06:59:00;17.60;;;7.57;;
19167;SDS011;9716;53.114;18.040;2022-09-09T07:01:32;21.52;;;6.95;;
19167;SDS011;9716;53.114;18.040;2022-09-09T07:04:03;15.02;;;7.20;;
19167;SDS011;9716;53.114;18.040;2022-09-09T07:06:35;18.00;;;8.15;;
19167;SDS011;9716;53.114;18.040;2022-09-09T07:09:06;18.55;;;6.65;;
19167;SDS011;9716;53.114;18.040;2022-09-09T07:11:37;16.27;;;7.75;;
19167;SDS011;9716;53.114;18.040;2022-09-09T07:14:08;20.73;;;7.07;;
19167;SDS011;9716;53.114;18.040;2022-09-09T07:16:41;19.35;;;8.77;;
19167;SDS011;9716;53.114;18.040;2022-09-09T07:19:10;26.48;;;7.80;;
19167;SDS011;9716;53.114;18.040;2022-09-09T07:21:41;14.98;;;7.13;;
19167;SDS011;9716;53.114;18.040;2022-09-09T07:24:10;27.23;;;7.60;;
19167;SDS011;9716;53.114;18.040;2022-09-09T07:26:39;26.10;;;8.93;;
19167;SDS011;9716;53.114;18.040;2022-09-09T07:29:08;19.23;;;7.53;;
19167;SDS011;9716;53.114;18.040;2022-09-09T07:31:48;19.83;;;8.05;;
19167;SDS011;9716;53.114;18.040;2022-09-09T07:34:16;20.15;;;8.05;;
19167;SDS011;9716;53.114;18.040;2022-09-09T07:36:44;24.60;;;8.10;;
19167;SDS011;9716;53.114;18.040;2022-09-09T07:39:14;22.27;;;9.30;;
19167;SDS011;9716;53.114;18.040;2022-09-09T07:41:44;18.23;;;8.25;;
19167;SDS011;9716;53.114;18.040;2022-09-09T07:44:15;18.73;;;8.27;;
19167;SDS011;9716;53.114;18.040;2022-09-09T07:46:45;28.20;;;10.23;;
19167;SDS011;9716;53.114;18.040;2022-09-09T07:49:15;27.35;;;10.32;;
19167;SDS011;9716;53.114;18.040;2022-09-09T07:51:53;23.38;;;9.32;;
19167;SDS011;9716;53.114;18.040;2022-09-09T07:54:21;23.02;;;9.48;;
19167;SDS011;9716;53.114;18.040;2022-09-09T07:56:50;27.45;;;10.15;;
19167;SDS011;9716;53.114;18.040;2022-09-09T07:59:20;27.90;;;10.20;;
19167;SDS011;9716;53.114;18.040;2022-09-09T08:01:50;24.33;;;10.35;;
19167;SDS011;9716;53.114;18.040;2022-09-09T08:04:22;19.08;;;9.00;;
19167;SDS011;9716;53.114;18.040;2022-09-09T08:06:52;17.77;;;9.35;;
19167;SDS011;9716;53.114;18.040;2022-09-09T08:09:22;26.58;;;10.75;;
19167;SDS011;9716;53.114;18.040;2022-09-09T08:11:53;26.13;;;9.20;;
19167;SDS011;9716;53.114;18.040;2022-09-09T08:14:23;35.80;;;9.60;;
19167;SDS011;9716;53.114;18.040;2022-09-09T08:16:53;27.02;;;10.75;;
19167;SDS011;9716;53.114;18.040;2022-09-09T08:19:22;26.65;;;9.65;;
19167;SDS011;9716;53.114;18.040;2022-09-09T08:21:51;25.38;;;10.38;;
19167;SDS011;9716;53.114;18.040;2022-09-09T08:24:20;22.63;;;9.57;;
19167;SDS011;9716;53.114;18.040;2022-09-09T08:26:49;17.13;;;8.73;;
19167;SDS011;9716;53.114;18.040;2022-09-09T08:29:18;21.73;;;8.90;;
19167;SDS011;9716;53.114;18.040;2022-09-09T08:31:47;30.85;;;9.23;;
19167;SDS011;9716;53.114;18.040;2022-09-09T08:34:18;21.77;;;9.52;;
19167;SDS011;9716;53.114;18.040;2022-09-09T08:36:47;24.25;;;9.35;;
19167;SDS011;9716;53.114;18.040;2022-09-09T08:39:18;18.35;;;9.13;;
19167;SDS011;9716;53.114;18.040;2022-09-09T08:45:23;23.60;;;8.95;;
19167;SDS011;9716;53.114;18.040;2022-09-09T08:47:58;25.38;;;9.25;;
19167;SDS011;9716;53.114;18.040;2022-09-09T08:50:39;23.42;;;9.20;;
19167;SDS011;9716;53.114;18.040;2022-09-09T08:53:11;22.05;;;8.23;;
19167;SDS011;9716;53.114;18.040;2022-09-09T08:55:47;18.38;;;8.38;;
19167;SDS011;9716;53.114;18.040;2022-09-09T08:58:18;23.02;;;8.50;;
19167;SDS011;9716;53.114;18.040;2022-09-09T09:00:57;17.65;;;8.98;;
19167;SDS011;9716;53.114;18.040;2022-09-09T09:03:35;21.83;;;9.38;;
19167;SDS011;9716;53.114;18.040;2022-09-09T09:06:20;21.42;;;8.50;;
19167;SDS011;9716;53.114;18.040;2022-09-09T09:08:57;20.27;;;9.02;;
19167;SDS011;9716;53.114;18.040;2022-09-09T09:11:33;27.50;;;11.18;;
19167;SDS011;9716;53.114;18.040;2022-09-09T09:14:07;25.02;;;9.88;;
19167;SDS011;9716;53.114;18.040;2022-09-09T09:16:38;24.58;;;10.45;;
19167;SDS011;9716;53.114;18.040;2022-09-09T09:19:14;16.65;;;8.25;;
19167;SDS011;9716;53.114;18.040;2022-09-09T09:21:48;23.90;;;8.95;;
19167;SDS011;9716;53.114;18.040;2022-09-09T09:24:23;27.38;;;9.32;;
19167;SDS011;9716;53.114;18.040;2022-09-09T09:27:00;15.88;;;8.68;;
19167;SDS011;9716;53.114;18.040;2022-09-09T09:29:39;20.27;;;9.43;;
19167;SDS011;9716;53.114;18.040;2022-09-09T09:32:30;22.58;;;9.90;;
19167;SDS011;9716;53.114;18.040;2022-09-09T09:35:02;27.02;;;10.63;;
19167;SDS011;9716;53.114;18.040;2022-09-09T09:37:39;21.10;;;9.75;;
19167;SDS011;9716;53.114;18.040;2022-09-09T09:40:30;39.72;;;13.25;;
19167;SDS011;9716;53.114;18.040;2022-09-09T09:43:00;27.92;;;11.57;;
19167;SDS011;9716;53.114;18.040;2022-09-09T09:45:35;20.27;;;9.40;;
19167;SDS011;9716;53.114;18.040;2022-09-09T09:48:21;18.58;;;9.05;;
19167;SDS011;9716;53.114;18.040;2022-09-09T09:50:50;27.67;;;10.38;;
19167;SDS011;9716;53.114;18.040;2022-09-09T09:53:23;26.48;;;10.40;;
19167;SDS011;9716;53.114;18.040;2022-09-09T09:55:55;21.08;;;9.02;;
19167;SDS011;9716;53.114;18.040;2022-09-09T09:58:26;24.67;;;11.23;;
19167;SDS011;9716;53.114;18.040;2022-09-09T10:00:59;23.45;;;9.93;;
19167;SDS011;9716;53.114;18.040;2022-09-09T10:03:29;25.25;;;9.50;;
19167;SDS011;9716;53.114;18.040;2022-09-09T10:06:04;19.77;;;9.52;;
19167;SDS011;9716;53.114;18.040;2022-09-09T10:08:43;28.10;;;10.35;;
19167;SDS011;9716;53.114;18.040;2022-09-09T10:11:18;24.73;;;11.20;;
19167;SDS011;9716;53.114;18.040;2022-09-09T10:13:57;22.38;;;11.15;;
19167;SDS011;9716;53.114;18.040;2022-09-09T10:16:35;33.10;;;11.05;;
19167;SDS011;9716;53.114;18.040;2022-09-09T10:19:14;32.30;;;13.82;;
19167;SDS011;9716;53.114;18.040;2022-09-09T10:21:56;33.58;;;14.13;;
19167;SDS011;9716;53.114;18.040;2022-09-09T10:27:38;24.73;;;11.88;;
19167;SDS011;9716;53.114;18.040;2022-09-09T10:30:14;34.30;;;13.35;;
19167;SDS011;9716;53.114;18.040;2022-09-09T10:32:46;30.38;;;12.82;;
19167;SDS011;9716;53.114;18.040;2022-09-09T10:35:24;29.58;;;12.45;;
19167;SDS011;9716;53.114;18.040;2022-09-09T10:38:13;34.75;;;13.30;;
19167;SDS011;9716;53.114;18.040;2022-09-09T10:40:50;27.95;;;11.43;;
19167;SDS011;9716;53.114;18.040;2022-09-09T10:43:45;23.98;;;11.38;;
19167;SDS011;9716;53.114;18.040;2022-09-09T10:46:36;28.13;;;11.13;;
19167;SDS011;9716;53.114;18.040;2022-09-09T10:49:19;27.83;;;12.25;;
19167;SDS011;9716;53.114;18.040;2022-09-09T10:51:58;20.58;;;10.85;;
19167;SDS011;9716;53.114;18.040;2022-09-09T10:54:36;21.77;;;10.02;;
19167;SDS011;9716;53.114;18.040;2022-09-09T10:57:19;17.33;;;9.80;;
19167;SDS011;9716;53.114;18.040;2022-09-09T10:59:56;22.70;;;10.15;;
19167;SDS011;9716;53.114;18.040;2022-09-09T11:02:31;18.85;;;9.45;;
19167;SDS011;9716;53.114;18.040;2022-09-09T11:05:02;22.38;;;8.98;;
19167;SDS011;9716;53.114;18.040;2022-09-09T11:07:37;26.48;;;10.30;;
19167;SDS011;9716;53.114;18.040;2022-09-09T11:10:16;23.80;;;9.10;;
19167;SDS011;9716;53.114;18.040;2022-09-09T11:12:53;18.10;;;8.57;;
19167;SDS011;9716;53.114;18.040;2022-09-09T11:15:28;19.02;;;10.25;;
19167;SDS011;9716;53.114;18.040;2022-09-09T11:18:01;20.25;;;9.52;;
19167;SDS011;9716;53.114;18.040;2022-09-09T11:20:34;20.70;;;8.57;;
19167;SDS011;9716;53.114;18.040;2022-09-09T11:23:04;20.60;;;9.40;;
19167;SDS011;9716;53.114;18.040;2022-09-09T11:25:38;25.65;;;9.02;;
19167;SDS011;9716;53.114;18.040;2022-09-09T11:31:04;18.90;;;8.35;;
19167;SDS011;9716;53.114;18.040;2022-09-09T11:33:49;13.10;;;8.02;;
19167;SDS011;9716;53.114;18.040;2022-09-09T11:39:57;10.45;;;5.43;;
19167;SDS011;9716;53.114;18.040;2022-09-09T11:43:00;19.40;;;7.80;;
19167;SDS011;9716;53.114;18.040;2022-09-09T11:45:34;18.92;;;7.75;;
19167;SDS011;9716;53.114;18.040;2022-09-09T11:48:03;20.15;;;7.28;;
19167;SDS011;9716;53.114;18.040;2022-09-09T11:50:34;17.02;;;6.75;;
19167;SDS011;9716;53.114;18.040;2022-09-09T11:53:05;17.77;;;6.45;;
19167;SDS011;9716;53.114;18.040;2022-09-09T11:55:48;14.63;;;6.60;;
19167;SDS011;9716;53.114;18.040;2022-09-09T11:58:34;13.40;;;6.13;;
19167;SDS011;9716;53.114;18.040;2022-09-09T12:01:14;10.77;;;5.35;;
19167;SDS011;9716;53.114;18.040;2022-09-09T12:04:11;25.73;;;8.82;;
19167;SDS011;9716;53.114;18.040;2022-09-09T12:06:54;18.80;;;7.18;;
19167;SDS011;9716;53.114;18.040;2022-09-09T12:09:27;17.42;;;6.30;;
19167;SDS011;9716;53.114;18.040;2022-09-09T12:12:06;16.48;;;6.63;;
19167;SDS011;9716;53.114;18.040;2022-09-09T12:14:55;13.85;;;5.53;;
19167;SDS011;9716;53.114;18.040;2022-09-09T12:17:28;11.48;;;6.10;;
19167;SDS011;9716;53.114;18.040;2022-09-09T12:20:00;9.80;;;4.63;;
19167;SDS011;9716;53.114;18.040;2022-09-09T12:22:35;11.85;;;6.38;;
19167;SDS011;9716;53.114;18.040;2022-09-09T12:25:16;16.50;;;7.50;;
19167;SDS011;9716;53.114;18.040;2022-09-09T12:27:55;14.55;;;5.93;;
19167;SDS011;9716;53.114;18.040;2022-09-09T12:30:33;15.20;;;6.32;;
19167;SDS011;9716;53.114;18.040;2022-09-09T12:33:10;10.07;;;5.30;;
19167;SDS011;9716;53.114;18.040;2022-09-09T12:35:42;12.18;;;5.13;;
19167;SDS011;9716;53.114;18.040;2022-09-09T12:38:15;12.13;;;6.35;;
19167;SDS011;9716;53.114;18.040;2022-09-09T12:40:53;10.15;;;5.47;;
19167;SDS011;9716;53.114;18.040;2022-09-09T12:43:25;15.85;;;6.18;;
19167;SDS011;9716;53.114;18.040;2022-09-09T12:45:56;12.95;;;6.85;;
19167;SDS011;9716;53.114;18.040;2022-09-09T12:48:30;11.93;;;5.95;;
19167;SDS011;9716;53.114;18.040;2022-09-09T12:51:01;11.07;;;6.20;;
19167;SDS011;9716;53.114;18.040;2022-09-09T12:53:45;12.52;;;6.57;;
19167;SDS011;9716;53.114;18.040;2022-09-09T12:56:18;10.63;;;5.55;;
19167;SDS011;9716;53.114;18.040;2022-09-09T12:58:49;10.68;;;5.97;;
19167;SDS011;9716;53.114;18.040;2022-09-09T13:01:20;16.75;;;5.38;;
19167;SDS011;9716;53.114;18.040;2022-09-09T13:03:52;15.35;;;6.25;;
19167;SDS011;9716;53.114;18.040;2022-09-09T13:06:21;17.40;;;6.18;;
19167;SDS011;9716;53.114;18.040;2022-09-09T13:08:55;14.88;;;7.57;;
19167;SDS011;9716;53.114;18.040;2022-09-09T13:11:26;14.80;;;5.90;;
19167;SDS011;9716;53.114;18.040;2022-09-09T13:13:58;15.70;;;6.90;;
19167;SDS011;9716;53.114;18.040;2022-09-09T13:16:27;17.77;;;6.53;;
19167;SDS011;9716;53.114;18.040;2022-09-09T13:19:02;9.85;;;5.75;;
19167;SDS011;9716;53.114;18.040;2022-09-09T13:21:36;10.63;;;6.00;;
19167;SDS011;9716;53.114;18.040;2022-09-09T13:24:30;15.60;;;6.10;;
19167;SDS011;9716;53.114;18.040;2022-09-09T13:26:57;15.23;;;7.47;;
19167;SDS011;9716;53.114;18.040;2022-09-09T13:29:29;11.02;;;5.93;;
19167;SDS011;9716;53.114;18.040;2022-09-09T13:32:03;17.77;;;6.43;;
19167;SDS011;9716;53.114;18.040;2022-09-09T13:34:34;10.32;;;6.55;;
19167;SDS011;9716;53.114;18.040;2022-09-09T13:37:04;14.90;;;5.75;;
19167;SDS011;9716;53.114;18.040;2022-09-09T13:39:34;13.27;;;6.10;;
19167;SDS011;9716;53.114;18.040;2022-09-09T13:42:04;13.18;;;6.43;;
19167;SDS011;9716;53.114;18.040;2022-09-09T13:44:34;14.77;;;6.60;;
19167;SDS011;9716;53.114;18.040;2022-09-09T13:47:17;13.50;;;5.95;;
19167;SDS011;9716;53.114;18.040;2022-09-09T13:49:48;16.17;;;6.40;;
19167;SDS011;9716;53.114;18.040;2022-09-09T13:52:18;21.35;;;6.72;;
19167;SDS011;9716;53.114;18.040;2022-09-09T13:54:49;13.35;;;6.43;;
19167;SDS011;9716;53.114;18.040;2022-09-09T13:57:19;10.70;;;6.30;;
19167;SDS011;9716;53.114;18.040;2022-09-09T13:59:49;13.85;;;6.30;;
19167;SDS011;9716;53.114;18.040;2022-09-09T14:02:31;12.43;;;4.93;;
19167;SDS011;9716;53.114;18.040;2022-09-09T14:05:02;15.10;;;6.45;;
19167;SDS011;9716;53.114;18.040;2022-09-09T14:07:30;10.98;;;5.47;;
19167;SDS011;9716;53.114;18.040;2022-09-09T14:10:00;10.93;;;5.93;;
19167;SDS011;9716;53.114;18.040;2022-09-09T14:12:28;9.38;;;5.32;;
19167;SDS011;9716;53.114;18.040;2022-09-09T14:14:56;14.93;;;5.97;;
19167;SDS011;9716;53.114;18.040;2022-09-09T14:17:26;16.95;;;6.25;;
19167;SDS011;9716;53.114;18.040;2022-09-09T14:19:57;12.43;;;5.93;;
19167;SDS011;9716;53.114;18.040;2022-09-09T14:22:27;8.65;;;5.57;;
19167;SDS011;9716;53.114;18.040;2022-09-09T14:24:55;15.50;;;6.28;;
19167;SDS011;9716;53.114;18.040;2022-09-09T14:27:24;10.50;;;6.05;;
19167;SDS011;9716;53.114;18.040;2022-09-09T14:29:53;10.00;;;5.50;;
19167;SDS011;9716;53.114;18.040;2022-09-09T14:32:22;11.15;;;5.03;;
19167;SDS011;9716;53.114;18.040;2022-09-09T14:34:50;12.27;;;5.82;;
19167;SDS011;9716;53.114;18.040;2022-09-09T14:37:19;11.75;;;5.85;;
19167;SDS011;9716;53.114;18.040;2022-09-09T14:39:49;13.38;;;6.82;;
19167;SDS011;9716;53.114;18.040;2022-09-09T14:42:18;10.93;;;7.07;;
19167;SDS011;9716;53.114;18.040;2022-09-09T14:44:46;15.52;;;6.65;;
19167;SDS011;9716;53.114;18.040;2022-09-09T14:47:15;12.27;;;6.38;;
19167;SDS011;9716;53.114;18.040;2022-09-09T14:49:43;12.63;;;6.15;;
19167;SDS011;9716;53.114;18.040;2022-09-09T14:52:12;17.17;;;6.05;;
19167;SDS011;9716;53.114;18.040;2022-09-09T14:54:41;11.25;;;5.60;;
19167;SDS011;9716;53.114;18.040;2022-09-09T14:57:11;13.60;;;6.53;;
19167;SDS011;9716;53.114;18.040;2022-09-09T14:59:40;13.80;;;6.97;;
19167;SDS011;9716;53.114;18.040;2022-09-09T15:02:09;12.85;;;6.72;;
19167;SDS011;9716;53.114;18.040;2022-09-09T15:04:37;12.40;;;6.97;;
19167;SDS011;9716;53.114;18.040;2022-09-09T15:07:05;13.68;;;5.70;;
19167;SDS011;9716;53.114;18.040;2022-09-09T15:09:34;10.75;;;5.57;;
19167;SDS011;9716;53.114;18.040;2022-09-09T15:12:03;10.85;;;6.20;;
19167;SDS011;9716;53.114;18.040;2022-09-09T15:14:33;11.80;;;5.85;;
19167;SDS011;9716;53.114;18.040;2022-09-09T15:17:03;11.55;;;5.85;;
19167;SDS011;9716;53.114;18.040;2022-09-09T15:19:32;16.83;;;6.95;;
19167;SDS011;9716;53.114;18.040;2022-09-09T15:22:00;10.55;;;5.93;;
19167;SDS011;9716;53.114;18.040;2022-09-09T15:24:29;13.60;;;5.70;;
19167;SDS011;9716;53.114;18.040;2022-09-09T15:26:57;10.57;;;5.93;;